Time;durP1;ratioP1;P1;durP2;ratioP2;P2;SDS_P1;SDS_P2;PMS_P1;PMS_P2;Temp;Humidity;BMP_temperature;BMP_pressure;BME280_temperature;BME280_humidity;BME280_pressure;Samples;Min_cycle;Max_cycle;Signal;HPM_P1;HPM_P2
2023/05/31 00:02:21;;;;;;;4.90;2.20;;;;;;;12.33;57.20;101428.70;104828;1269;99390;-80
2023/05/31 00:05:07;;;;;;;4.30;2.10;;;;;;;12.22;57.54;101429.57;105426;1273;98610;-79
2023/05/31 00:07:54;;;;;;;5.60;2.40;;;;;;;12.11;57.52;101431.98;105366;1268;97886;-80
2023/05/31 00:10:39;;;;;;;6.60;3.00;;;;;;;12.01;57.93;101431.95;105451;1270;98510;-80
2023/05/31 00:13:25;;;;;;;4.00;2.40;;;;;;;11.90;58.28;101436.73;105423;1272;101362;-80
2023/05/31 00:16:10;;;;;;;5.60;2.80;;;;;;;11.82;58.85;101443.91;105377;1268;99273;-79
2023/05/31 00:18:57;;;;;;;4.70;2.10;;;;;;;11.75;59.17;101442.37;105447;1270;98012;-80
2023/05/31 00:21:44;;;;;;;6.00;2.50;;;;;;;11.69;59.28;101442.75;105376;1271;97908;-81
2023/05/31 00:24:30;;;;;;;4.80;2.10;;;;;;;11.65;59.70;101437.27;105280;1270;97916;-81
2023/05/31 00:27:15;;;;;;;5.00;2.30;;;;;;;11.62;59.75;101439.92;105174;1273;102685;-81
2023/05/31 00:30:01;;;;;;;7.00;2.60;;;;;;;11.57;59.84;101438.13;105208;1268;99222;-80
2023/05/31 00:32:47;;;;;;;5.60;2.70;;;;;;;11.55;60.03;101441.73;105098;1273;97895;-82
2023/05/31 00:35:32;;;;;;;3.60;2.20;;;;;;;11.55;59.90;101440.40;105072;1273;97994;-80
2023/05/31 00:38:18;;;;;;;4.60;2.10;;;;;;;11.53;60.03;101441.26;105010;1271;98045;-81
2023/05/31 00:41:04;;;;;;;8.20;2.80;;;;;;;11.54;59.95;101438.35;105050;1268;101363;-80
2023/05/31 00:43:49;;;;;;;9.80;2.60;;;;;;;11.54;59.78;101441.33;105133;1268;100134;-81
2023/05/31 00:46:38;;;;;;;8.00;2.50;;;;;;;11.52;59.98;101441.73;105115;1267;97902;-80
2023/05/31 00:49:23;;;;;;;5.50;2.20;;;;;;;11.52;59.83;101442.88;105217;1268;97908;-80
2023/05/31 00:52:10;;;;;;;5.40;2.50;;;;;;;11.50;59.76;101444.16;105357;1267;98403;-80
2023/05/31 00:54:56;;;;;;;6.50;2.50;;;;;;;11.46;59.70;101448.73;105454;1273;101375;-80
2023/05/31 00:57:42;;;;;;;5.40;2.20;;;;;;;11.45;59.73;101454.61;105451;1271;99154;-80
2023/05/31 01:00:30;;;;;;;4.50;2.10;;;;;;;11.43;59.77;101452.38;105327;1268;98863;-81
2023/05/31 01:03:18;;;;;;;4.10;2.00;;;;;;;11.42;59.83;101450.71;105435;1272;97996;-80
2023/05/31 01:06:04;;;;;;;7.80;2.40;;;;;;;11.43;59.78;101449.36;105372;1272;98006;-80
2023/05/31 01:08:51;;;;;;;7.80;2.40;;;;;;;11.39;59.92;101450.03;105403;1267;101369;-81
2023/05/31 01:11:58;;;;;;;7.20;2.70;;;;;;;11.34;59.83;101453.02;105512;1273;99674;-80
2023/05/31 01:15:17;;;;;;;3.70;1.90;;;;;;;11.27;59.69;101455.52;105332;1268;97969;-82
2023/05/31 01:18:34;;;;;;;7.80;2.20;;;;;;;11.21;59.76;101455.36;105377;1273;98004;-80
2023/05/31 01:21:32;;;;;;;5.70;2.80;;;;;;;11.13;59.89;101454.73;105341;1268;98494;-81
2023/05/31 01:25:05;;;;;;;4.40;2.20;;;;;;;11.08;60.14;101464.29;105256;1273;101406;-82
2023/05/31 01:27:53;;;;;;;6.10;2.50;;;;;;;11.01;60.42;101466.11;105137;1279;100412;-81
2023/05/31 01:30:38;;;;;;;5.80;2.80;;;;;;;10.96;60.54;101468.64;105334;1273;98985;-81
2023/05/31 01:33:24;;;;;;;5.00;2.30;;;;;;;10.93;61.07;101470.65;105490;1268;97979;-81
2023/05/31 01:36:10;;;;;;;9.70;2.60;;;;;;;10.89;61.26;101472.09;105496;1268;98588;-82
2023/05/31 01:38:55;;;;;;;10.10;3.00;;;;;;;10.82;61.43;101478.94;105367;1267;102639;-81
2023/05/31 01:41:43;;;;;;;5.20;2.50;;;;;;;10.73;61.02;101480.67;105481;1271;99697;-80
2023/05/31 01:44:31;;;;;;;3.90;2.40;;;;;;;10.63;61.43;101479.55;105392;1268;98605;-80
2023/05/31 01:47:18;;;;;;;8.60;2.50;;;;;;;10.57;61.90;101479.95;105408;1268;98547;-80
2023/05/31 01:50:04;;;;;;;6.60;2.00;;;;;;;10.52;62.48;101484.09;105522;1271;98496;-81
2023/05/31 01:52:50;;;;;;;4.70;2.80;;;;;;;10.45;62.64;101487.66;105422;1273;101348;-80
2023/05/31 01:55:36;;;;;;;11.80;2.70;;;;;;;10.37;62.64;101486.58;105507;1268;100366;-80
2023/05/31 01:58:22;;;;;;;6.00;2.20;;;;;;;10.28;63.07;101486.52;105315;1268;106350;-80
2023/05/31 02:01:11;;;;;;;5.00;2.60;;;;;;;10.19;63.02;101488.86;105431;1267;98016;-80
2023/05/31 02:03:56;;;;;;;5.90;2.50;;;;;;;10.09;63.10;101492.60;105356;1268;98495;-80
2023/05/31 02:06:42;;;;;;;5.20;2.00;;;;;;;9.99;63.19;101494.34;105536;1267;102623;-80
2023/05/31 02:09:28;;;;;;;5.10;2.20;;;;;;;9.90;63.44;101495.31;105325;1270;100242;-80
2023/05/31 02:12:14;;;;;;;5.60;2.30;;;;;;;9.80;63.60;101491.95;105414;1268;98013;-79
2023/05/31 02:15:00;;;;;;;12.10;2.40;;;;;;;9.73;64.00;101489.95;105398;1268;97968;-79
2023/05/31 02:17:50;;;;;;;3.70;2.30;;;;;;;9.69;63.82;101490.94;105431;1271;98532;-80
2023/05/31 02:20:36;;;;;;;7.30;2.70;;;;;;;9.67;63.95;101492.46;105450;1273;101483;-81
2023/05/31 02:23:22;;;;;;;6.10;3.40;;;;;;;9.65;64.08;101492.48;105481;1268;99175;-81
2023/05/31 02:26:07;;;;;;;5.90;3.20;;;;;;;9.63;64.04;101493.60;105340;1268;98657;-81
2023/05/31 02:28:52;;;;;;;6.60;3.10;;;;;;;9.61;64.18;101495.20;105495;1267;98127;-80
2023/05/31 02:31:39;;;;;;;4.60;3.00;;;;;;;9.59;64.01;101494.55;105545;1272;99416;-80
2023/05/31 02:34:26;;;;;;;4.50;2.90;;;;;;;9.57;64.19;101492.55;105537;1268;111981;-80
2023/05/31 02:37:13;;;;;;;6.00;2.80;;;;;;;9.54;64.17;101492.85;105433;1274;99136;-80
2023/05/31 02:39:58;;;;;;;7.30;2.90;;;;;;;9.52;64.20;101499.39;105425;1267;99081;-80
2023/05/31 02:42:44;;;;;;;10.50;3.60;;;;;;;9.47;64.45;101500.83;105507;1272;97848;-81
2023/05/31 02:45:30;;;;;;;6.30;3.50;;;;;;;9.42;64.91;101502.36;105550;1268;99639;-79
2023/05/31 02:48:16;;;;;;;6.00;2.90;;;;;;;9.40;65.25;101499.77;105555;1268;101366;-80
2023/05/31 02:51:02;;;;;;;3.20;2.30;;;;;;;9.37;65.58;101502.03;105574;1270;100363;-81
2023/05/31 02:54:13;;;;;;;8.60;2.80;;;;;;;9.34;65.90;101504.58;105429;1268;99528;-79
2023/05/31 02:56:59;;;;;;;7.40;2.70;;;;;;;9.32;66.12;101501.94;104764;1268;98033;-81
2023/05/31 02:59:48;;;;;;;5.70;2.50;;;;;;;9.30;66.23;101503.93;105853;1270;99649;-81
2023/05/31 03:02:38;;;;;;;9.10;2.40;;;;;;;9.27;66.36;101500.14;105550;1271;102622;-80
2023/05/31 03:05:49;;;;;;;5.30;2.00;;;;;;;9.23;66.44;101500.71;105512;1270;99153;-80
2023/05/31 03:08:36;;;;;;;5.30;2.50;;;;;;;9.21;66.46;101498.42;105603;1268;98652;-81
2023/05/31 03:11:21;;;;;;;4.30;2.20;;;;;;;9.22;66.71;101504.98;105418;1268;97940;-81
2023/05/31 03:14:07;;;;;;;4.40;2.20;;;;;;;9.20;66.70;101506.05;105444;1273;99631;-80
2023/05/31 03:17:06;;;;;;;4.60;2.40;;;;;;;9.16;66.82;101508.88;105460;1268;110917;-79
2023/05/31 03:19:52;;;;;;;4.70;2.70;;;;;;;9.16;67.01;101511.81;104899;1268;99739;-79
2023/05/31 03:22:39;;;;;;;4.00;2.50;;;;;;;9.14;67.21;101510.36;104918;1280;99049;-80
2023/05/31 03:25:25;;;;;;;7.40;2.30;;;;;;;9.15;67.66;101509.95;105396;1273;97944;-80
2023/05/31 03:28:10;;;;;;;6.30;3.50;;;;;;;9.15;68.00;101513.33;105413;1269;99218;-78
2023/05/31 03:30:57;;;;;;;5.30;2.80;;;;;;;9.17;68.30;101514.55;105551;1272;101382;-80
2023/05/31 03:33:43;;;;;;;9.00;3.20;;;;;;;9.20;68.43;101512.62;105422;1268;99893;-78
2023/05/31 03:36:28;;;;;;;4.80;2.60;;;;;;;9.23;68.53;101507.52;105457;1268;99041;-81
2023/05/31 03:39:14;;;;;;;7.40;2.90;;;;;;;9.25;68.27;101511.45;105518;1268;97971;-79
2023/05/31 03:42:01;;;;;;;3.40;2.40;;;;;;;9.25;68.62;101511.20;105566;1268;97991;-81
2023/05/31 03:44:48;;;;;;;3.80;2.20;;;;;;;9.26;68.83;101515.56;105356;1273;101378;-81
2023/05/31 03:47:34;;;;;;;5.80;2.80;;;;;;;9.28;69.00;101518.89;105562;1273;99916;-82
2023/05/31 03:50:20;;;;;;;3.30;2.30;;;;;;;9.32;69.25;101515.34;105510;1272;98318;-80
2023/05/31 03:53:05;;;;;;;4.90;2.30;;;;;;;9.37;69.12;101514.51;105447;1268;98957;-80
2023/05/31 03:55:51;;;;;;;7.40;2.70;;;;;;;9.45;69.67;101519.34;105320;1273;97974;-81
2023/05/31 03:58:37;;;;;;;4.00;2.30;;;;;;;9.52;69.90;101522.75;105309;1268;101375;-81
2023/05/31 04:01:23;;;;;;;10.40;2.80;;;;;;;9.55;70.21;101522.34;105396;1272;100445;-78
2023/05/31 04:04:10;;;;;;;3.70;2.20;;;;;;;9.59;70.41;101518.92;105280;1270;97966;-80
2023/05/31 04:06:55;;;;;;;7.00;2.80;;;;;;;9.64;70.38;101517.32;105416;1268;97933;-79
2023/05/31 04:09:41;;;;;;;6.70;2.50;;;;;;;9.69;70.56;101518.39;105374;1268;98077;-80
2023/05/31 04:12:28;;;;;;;3.90;2.00;;;;;;;9.76;70.54;101516.59;105531;1268;101376;-80
2023/05/31 04:15:15;;;;;;;5.70;2.40;;;;;;;9.87;70.75;101516.80;104856;1268;100514;-79
2023/05/31 04:18:00;;;;;;;5.00;2.30;;;;;;;10.00;70.77;101518.37;104750;1268;98026;-80
2023/05/31 04:20:46;;;;;;;3.60;2.20;;;;;;;10.12;70.84;101518.91;105500;1268;97997;-81
2023/05/31 04:23:32;;;;;;;6.60;2.60;;;;;;;10.25;70.41;101521.51;105522;1268;97991;-79
2023/05/31 04:26:18;;;;;;;9.60;3.40;;;;;;;10.35;70.37;101520.77;105403;1270;102641;-80
2023/05/31 04:29:04;;;;;;;9.00;2.30;;;;;;;10.44;70.57;101518.45;105431;1273;100499;-78
2023/05/31 04:31:51;;;;;;;3.60;2.00;;;;;;;10.55;70.24;101519.98;104817;1273;98086;-80
2023/05/31 04:34:37;;;;;;;6.40;2.10;;;;;;;10.64;70.10;101520.98;104786;1270;97933;-79
2023/05/31 04:37:26;;;;;;;3.80;2.00;;;;;;;10.71;69.70;101515.16;105372;1268;98527;-81
2023/05/31 04:40:11;;;;;;;7.20;2.50;;;;;;;10.79;69.63;101513.77;105376;1268;101370;-78
2023/05/31 04:43:00;;;;;;;7.80;2.30;;;;;;;10.86;69.28;101511.33;105609;1272;100575;-81
2023/05/31 04:45:49;;;;;;;9.60;2.80;;;;;;;10.95;69.45;101511.34;105451;1272;98049;-79
2023/05/31 04:48:38;;;;;;;4.80;2.00;;;;;;;11.03;69.60;101510.41;105451;1268;97850;-80
2023/05/31 04:51:24;;;;;;;7.20;2.20;;;;;;;11.11;69.64;101514.19;105461;1272;97910;-79
2023/05/31 04:54:09;;;;;;;8.00;2.30;;;;;;;11.18;69.80;101513.82;105451;1268;101394;-77
2023/05/31 04:56:55;;;;;;;6.20;2.50;;;;;;;11.26;69.67;101512.52;105451;1268;99111;-79
2023/05/31 04:59:41;;;;;;;5.20;2.00;;;;;;;11.35;69.52;101513.34;105372;1268;98002;-79
2023/05/31 05:02:27;;;;;;;6.80;2.20;;;;;;;11.45;69.72;101515.16;105558;1272;97973;-80
2023/05/31 05:05:15;;;;;;;4.80;1.80;;;;;;;11.56;69.70;101517.98;105010;1268;99625;-80
2023/05/31 05:08:01;;;;;;;7.90;2.90;;;;;;;11.69;69.67;101514.89;105329;1270;102694;-79
2023/05/31 05:10:47;;;;;;;6.70;2.50;;;;;;;11.80;69.06;101516.30;105313;1268;100395;-79
2023/05/31 05:13:34;;;;;;;4.60;2.30;;;;;;;11.89;68.13;101514.21;104792;1285;98058;-79
2023/05/31 05:16:20;;;;;;;5.90;1.80;;;;;;;11.95;67.87;101510.74;104827;1268;98006;-79
2023/05/31 05:19:06;;;;;;;8.70;2.30;;;;;;;12.03;67.62;101509.14;105593;1268;97869;-81
2023/05/31 05:21:53;;;;;;;5.00;2.00;;;;;;;12.14;67.65;101511.70;105582;1273;101350;-80
2023/05/31 05:24:41;;;;;;;6.80;1.90;;;;;;;12.23;66.91;101512.06;105446;1268;99674;-81
2023/05/31 05:27:27;;;;;;;4.70;2.50;;;;;;;12.27;66.69;101508.11;105556;1268;98977;-81
2023/05/31 05:30:14;;;;;;;4.70;2.00;;;;;;;12.38;67.37;101504.73;105551;1268;97990;-82
2023/05/31 05:33:00;;;;;;;8.80;2.10;;;;;;;12.51;66.99;101506.98;105339;1268;98128;-81
2023/05/31 05:35:45;;;;;;;4.50;2.00;;;;;;;12.62;65.87;101505.70;105591;1268;102536;-80
2023/05/31 05:38:32;;;;;;;5.30;2.00;;;;;;;12.69;65.26;101504.17;105457;1268;99116;-80
2023/05/31 05:41:18;;;;;;;10.20;2.50;;;;;;;12.75;65.51;101505.77;105516;1273;99028;-82
2023/05/31 05:44:04;;;;;;;4.30;1.90;;;;;;;12.86;65.38;101512.48;105477;1268;98027;-82
2023/05/31 05:46:50;;;;;;;3.70;1.60;;;;;;;12.98;65.14;101514.81;105377;1268;97960;-81
2023/05/31 05:49:35;;;;;;;4.40;2.20;;;;;;;13.09;64.43;101509.39;105386;1268;101382;-81
2023/05/31 05:52:20;;;;;;;6.20;2.10;;;;;;;13.19;63.64;101509.50;105446;1267;109839;-82
2023/05/31 05:55:07;;;;;;;6.10;1.50;;;;;;;13.27;63.36;101509.70;105375;1268;98802;-81
2023/05/31 05:57:52;;;;;;;6.80;2.00;;;;;;;13.34;63.11;101502.86;105439;1268;97888;-82
2023/05/31 06:01:20;;;;;;;8.70;2.00;;;;;;;13.42;62.71;101505.55;105550;1267;96034;-81
2023/05/31 06:16:23;;;;;;;6.10;1.70;;;;;;;14.22;59.55;101508.04;103677;1279;640349;-80
2023/05/31 06:19:10;;;;;;;5.50;1.40;;;;;;;14.60;56.59;101504.13;105772;1261;95935;-81
2023/05/31 06:21:57;;;;;;;4.10;1.70;;;;;;;14.60;56.81;101500.59;105759;1266;95879;-81
2023/05/31 06:24:46;;;;;;;1.30;0.80;;;;;;;14.67;55.48;101496.09;105921;1261;98546;-81
2023/05/31 06:27:33;;;;;;;2.90;1.00;;;;;;;14.75;53.94;101497.46;105925;1261;99151;-79
2023/05/31 06:30:18;;;;;;;2.50;1.10;;;;;;;14.78;51.88;101496.34;105573;1261;97798;-85
2023/05/31 06:33:06;;;;;;;4.10;1.30;;;;;;;14.78;51.01;101498.40;105801;1261;95828;-80
2023/05/31 06:35:52;;;;;;;5.20;1.10;;;;;;;14.79;50.51;101498.63;106034;1261;95905;-80
2023/05/31 06:38:37;;;;;;;3.50;1.00;;;;;;;14.83;50.73;101500.38;106272;1257;105842;-81
2023/05/31 06:41:26;;;;;;;3.40;1.10;;;;;;;14.86;49.96;101499.08;105810;1260;99643;-79
2023/05/31 06:44:11;;;;;;;2.90;1.20;;;;;;;14.91;50.71;101495.59;105996;1258;97697;-80
2023/05/31 06:47:00;;;;;;;5.20;1.50;;;;;;;14.99;51.38;101497.06;106008;1262;95972;-79
2023/05/31 06:49:45;;;;;;;3.80;1.30;;;;;;;15.07;51.79;101490.48;106310;1260;95849;-81
2023/05/31 06:52:50;;;;;;;3.00;1.00;;;;;;;15.17;51.43;101484.33;106290;1263;99878;-81
2023/05/31 06:55:44;;;;;;;4.40;0.90;;;;;;;15.26;50.12;101485.85;106295;1258;100840;-80
2023/05/31 06:58:32;;;;;;;2.60;1.20;;;;;;;15.34;48.30;101479.73;106485;1256;98350;-91
2023/05/31 07:01:18;;;;;;;2.40;1.30;;;;;;;15.43;47.52;101480.11;106773;1258;95752;-89
2023/05/31 07:04:05;;;;;;;0.90;0.80;;;;;;;15.53;46.75;101479.05;106421;1260;95863;-88
2023/05/31 07:06:51;;;;;;;2.10;1.00;;;;;;;15.61;46.55;101478.41;106428;1261;98700;-88
2023/05/31 07:09:37;;;;;;;1.10;0.60;;;;;;;15.72;46.44;101473.62;106475;1260;99964;-90
2023/05/31 07:12:23;;;;;;;2.30;1.00;;;;;;;15.79;46.38;101469.92;106699;1264;98989;-90
2023/05/31 07:15:10;;;;;;;1.40;0.80;;;;;;;15.88;46.83;101464.09;106430;1263;95812;-90
2023/05/31 07:17:56;;;;;;;1.70;0.80;;;;;;;16.01;46.39;101467.02;106178;1266;95872;-87
2023/05/31 07:20:43;;;;;;;2.10;0.90;;;;;;;16.08;44.45;101463.91;106277;1255;98618;-85
2023/05/31 07:23:29;;;;;;;1.80;0.90;;;;;;;16.13;44.26;101458.77;106265;1255;99083;-86
2023/05/31 07:26:16;;;;;;;0.60;0.60;;;;;;;16.20;43.38;101461.25;106146;1254;107552;-85
2023/05/31 07:29:01;;;;;;;2.80;0.80;;;;;;;16.26;42.82;101453.41;106440;1263;95973;-86
2023/05/31 07:31:48;;;;;;;1.50;1.00;;;;;;;16.34;42.47;101452.47;106379;1254;95796;-86
2023/05/31 07:34:33;;;;;;;1.80;1.30;;;;;;;16.42;42.56;101450.62;106193;1259;99172;-82
2023/05/31 07:37:19;;;;;;;3.00;0.70;;;;;;;16.45;41.68;101450.34;105474;1259;100307;-78
2023/05/31 07:40:06;;;;;;;2.10;1.00;;;;;;;16.48;41.28;101445.11;106051;1254;97758;-87
2023/05/31 07:42:53;;;;;;;3.00;0.80;;;;;;;16.55;41.52;101440.88;106803;1255;95949;-85
2023/05/31 07:45:39;;;;;;;1.80;0.80;;;;;;;16.64;40.88;101438.59;106851;1251;96147;-84
2023/05/31 07:48:25;;;;;;;2.00;0.80;;;;;;;16.73;40.48;101440.36;106990;1249;99348;-87
2023/05/31 07:51:11;;;;;;;1.40;0.80;;;;;;;16.83;40.38;101435.29;106876;1253;99650;-84
2023/05/31 07:53:56;;;;;;;2.40;0.90;;;;;;;16.88;39.62;101433.17;106680;1256;98969;-85
2023/05/31 07:56:42;;;;;;;2.20;1.00;;;;;;;16.88;39.21;101431.47;106620;1256;95917;-85
2023/05/31 07:59:28;;;;;;;1.70;0.90;;;;;;;16.95;39.76;101432.29;107206;1255;95765;-87
2023/05/31 08:02:14;;;;;;;2.50;1.10;;;;;;;17.06;39.71;101434.67;106747;1251;98783;-82
2023/05/31 08:05:01;;;;;;;3.10;1.10;;;;;;;17.16;39.93;101435.83;106516;1254;108256;-79
2023/05/31 08:07:48;;;;;;;7.30;0.90;;;;;;;17.23;39.40;101431.33;106234;1257;98966;-80
2023/05/31 08:10:34;;;;;;;2.10;1.50;;;;;;;17.28;38.91;101426.98;105954;1257;95858;-79
2023/05/31 08:13:20;;;;;;;4.90;0.80;;;;;;;17.35;38.77;101428.82;105933;1254;95943;-80
2023/05/31 08:16:05;;;;;;;2.20;0.80;;;;;;;17.41;38.53;101430.96;105705;1257;98638;-79
2023/05/31 08:18:51;;;;;;;2.00;0.60;;;;;;;17.46;37.84;101427.24;105739;1257;100373;-78
2023/05/31 08:21:37;;;;;;;2.00;0.70;;;;;;;17.51;37.13;101423.30;105780;1257;97741;-79
2023/05/31 08:24:22;;;;;;;1.90;0.90;;;;;;;17.52;36.94;101418.44;105639;1257;97160;-78
2023/05/31 08:27:08;;;;;;;8.60;1.10;;;;;;;17.58;37.03;101416.20;105586;1256;95883;-79
2023/05/31 08:29:54;;;;;;;2.80;1.00;;;;;;;17.65;37.87;101415.52;105633;1256;98647;-77
2023/05/31 08:32:42;;;;;;;2.40;0.90;;;;;;;17.73;37.62;101413.00;105685;1256;99859;-80
2023/05/31 08:35:28;;;;;;;2.50;1.10;;;;;;;17.78;36.84;101415.02;105606;1257;97713;-80
2023/05/31 08:38:13;;;;;;;3.30;0.90;;;;;;;17.84;36.76;101413.53;105650;1257;96163;-78
2023/05/31 08:41:02;;;;;;;1.40;1.00;;;;;;;17.90;36.64;101409.76;105595;1259;95933;-80
2023/05/31 08:43:47;;;;;;;1.70;0.90;;;;;;;18.00;36.05;101407.54;105585;1257;100835;-79
2023/05/31 08:46:34;;;;;;;2.60;0.80;;;;;;;18.08;35.39;101409.67;105632;1266;100572;-79
2023/05/31 08:49:20;;;;;;;2.10;1.00;;;;;;;18.13;35.07;101404.02;105744;1261;97819;-79
2023/05/31 08:52:07;;;;;;;1.40;0.80;;;;;;;18.19;34.78;101401.07;105705;1263;95904;-78
2023/05/31 08:54:54;;;;;;;3.10;0.80;;;;;;;18.22;34.44;101400.88;105619;1254;97138;-79
2023/05/31 08:57:41;;;;;;;2.70;0.90;;;;;;;18.28;34.88;101403.73;105876;1257;100864;-86
2023/05/31 09:00:27;;;;;;;4.10;0.80;;;;;;;18.34;35.44;101401.23;106533;1254;99231;-85
2023/05/31 09:03:13;;;;;;;4.20;0.80;;;;;;;18.40;36.24;101403.78;106530;1255;99017;-85
2023/05/31 09:05:58;;;;;;;1.70;0.90;;;;;;;18.46;36.09;101403.60;106372;1261;95864;-82
2023/05/31 09:08:44;;;;;;;0.90;0.80;;;;;;;18.52;35.76;101402.77;106594;1264;95271;-84
2023/05/31 09:11:30;;;;;;;2.40;0.80;;;;;;;18.59;35.60;101402.19;106308;1254;98599;-84
2023/05/31 09:14:16;;;;;;;5.30;1.20;;;;;;;18.67;36.00;101399.03;106366;1257;99050;-86
2023/05/31 09:17:01;;;;;;;1.70;0.80;;;;;;;18.73;35.86;101395.36;106204;1259;98311;-83
2023/05/31 09:19:52;;;;;;;1.20;0.70;;;;;;;18.78;35.67;101392.98;106445;1254;95802;-79
2023/05/31 09:22:38;;;;;;;2.20;0.70;;;;;;;18.80;34.48;101391.66;106582;1254;95702;-81
2023/05/31 09:25:24;;;;;;;1.90;1.10;;;;;;;18.82;34.04;101391.89;106393;1260;98656;-79
2023/05/31 09:28:56;;;;;;;2.10;0.90;;;;;;;18.85;33.70;101393.37;107407;1253;99909;31
2023/05/31 09:31:43;;;;;;;3.80;0.90;;;;;;;18.91;33.72;101394.63;105679;1270;99048;-81
2023/05/31 09:34:29;;;;;;;2.00;1.00;;;;;;;18.94;32.95;101395.61;105707;1268;96465;-80
2023/05/31 09:37:24;;;;;;;4.50;0.90;;;;;;;18.99;32.22;101394.52;105470;1267;95898;-81
2023/05/31 09:40:13;;;;;;;2.90;0.70;;;;;;;19.06;33.22;101394.70;105668;1267;98808;-81
2023/05/31 09:42:59;;;;;;;1.80;0.90;;;;;;;19.13;33.17;101396.77;105881;1270;99085;-80
2023/05/31 09:45:47;;;;;;;0.90;0.80;;;;;;;19.19;32.70;101394.54;105653;1268;97714;-81
2023/05/31 09:48:32;;;;;;;1.40;0.90;;;;;;;19.24;33.09;101396.79;105647;1267;95904;-81
2023/05/31 09:51:19;;;;;;;1.40;0.70;;;;;;;19.32;33.58;101389.06;105498;1268;97219;-81
2023/05/31 09:54:16;;;;;;;2.10;0.80;;;;;;;19.39;33.56;101385.66;105717;1267;99847;-80
2023/05/31 09:57:02;;;;;;;3.00;1.20;;;;;;;19.45;33.74;101387.41;105575;1272;99122;-80
2023/05/31 09:59:57;;;;;;;4.00;0.90;;;;;;;19.49;33.91;101384.06;105753;1270;99435;-81
2023/05/31 10:02:46;;;;;;;2.50;1.00;;;;;;;19.56;33.56;101378.84;105597;1270;96243;-81
2023/05/31 10:05:32;;;;;;;1.70;0.90;;;;;;;19.62;33.55;101375.88;105526;1267;95704;-80
2023/05/31 10:08:18;;;;;;;1.60;0.70;;;;;;;19.69;33.74;101376.98;105481;1268;99957;-81
2023/05/31 10:11:04;;;;;;;3.40;1.00;;;;;;;19.74;33.16;101377.02;105473;1268;99805;-81
2023/05/31 10:13:52;;;;;;;1.70;1.20;;;;;;;19.77;32.12;101372.60;105588;1270;97711;-81
2023/05/31 10:16:45;;;;;;;2.00;0.80;;;;;;;19.78;31.26;101370.24;105468;1267;95857;-81
2023/05/31 10:19:44;;;;;;;3.80;1.00;;;;;;;19.80;31.07;101369.05;105630;1267;95907;-80
2023/05/31 10:22:33;;;;;;;1.60;1.20;;;;;;;19.88;31.84;101369.88;105566;1272;108023;-80
2023/05/31 10:25:27;;;;;;;2.00;0.80;;;;;;;19.94;31.66;101369.02;105512;1267;99683;-80
2023/05/31 10:28:16;;;;;;;2.40;0.70;;;;;;;19.95;31.15;101365.25;105413;1266;97714;-80
2023/05/31 10:31:03;;;;;;;4.10;1.20;;;;;;;19.95;31.21;101366.01;105095;1267;95832;-81
2023/05/31 10:33:54;;;;;;;4.80;1.00;;;;;;;19.95;30.61;101363.16;105560;1272;95901;-81
2023/05/31 10:36:39;;;;;;;3.00;1.00;;;;;;;20.00;30.94;101363.85;105778;1273;99497;-81
2023/05/31 10:39:32;;;;;;;1.70;1.10;;;;;;;20.05;30.61;101359.80;105731;1273;100523;-81
2023/05/31 10:42:44;;;;;;;4.80;1.00;;;;;;;20.12;31.11;101357.13;105635;1267;98980;-82
2023/05/31 10:45:45;;;;;;;8.40;1.10;;;;;;;20.25;31.43;101355.86;105582;1272;95926;-82
2023/05/31 10:48:49;;;;;;;1.20;0.70;;;;;;;20.36;31.10;101353.44;105571;1270;96327;-80
2023/05/31 10:51:47;;;;;;;1.80;1.00;;;;;;;20.39;30.43;101351.39;105408;1267;98678;-79
2023/05/31 10:54:33;;;;;;;1.90;1.00;;;;;;;20.43;30.24;101350.41;105709;1267;99093;-84
2023/05/31 10:57:19;;;;;;;1.80;1.10;;;;;;;20.45;29.79;101349.66;105285;1271;97797;-85
2023/05/31 11:00:06;;;;;;;3.10;1.60;;;;;;;20.46;29.28;101343.08;105163;1273;96549;-83
2023/05/31 11:02:56;;;;;;;1.80;1.30;;;;;;;20.50;29.96;101340.02;105177;1267;97654;-79
2023/05/31 11:05:57;;;;;;;1.20;1.10;;;;;;;20.55;30.01;101339.23;106212;1272;100373;-87
2023/05/31 11:09:09;;;;;;;3.80;1.20;;;;;;;20.63;29.74;101340.47;106134;1270;99147;-89
2023/05/31 11:11:56;;;;;;;5.90;1.80;;;;;;;20.76;30.69;101336.09;106101;1267;99007;-89
2023/05/31 11:26:57;;;;;;;6.90;1.20;;;;;;;21.28;28.94;101333.78;103834;1284;639878;-82
2023/05/31 11:29:52;;;;;;;1.30;1.00;;;;;;;21.43;29.01;101327.31;105303;1263;119962;-82
2023/05/31 11:32:37;;;;;;;3.90;1.30;;;;;;;21.38;28.99;101322.96;105744;1264;95839;-84
2023/05/31 11:35:23;;;;;;;3.30;1.00;;;;;;;21.38;29.40;101321.82;105785;1263;97265;-82
2023/05/31 11:38:10;;;;;;;3.20;1.20;;;;;;;21.40;29.39;101314.88;105844;1267;99210;-83
2023/05/31 11:41:02;;;;;;;2.80;1.10;;;;;;;21.41;29.39;101309.23;105759;1267;97744;-82
2023/05/31 11:43:48;;;;;;;1.20;0.80;;;;;;;21.42;29.70;101306.03;106830;1253;95906;-82
2023/05/31 11:46:39;;;;;;;3.60;1.30;;;;;;;21.47;29.40;101304.19;106773;1254;95928;-80
2023/05/31 11:49:26;;;;;;;5.50;1.10;;;;;;;21.49;29.06;101300.47;106574;1254;98675;-80
2023/05/31 11:52:16;;;;;;;1.50;1.00;;;;;;;21.45;28.59;101296.02;106730;1254;100062;-79
2023/05/31 11:55:06;;;;;;;2.30;1.30;;;;;;;21.39;28.66;101292.30;106458;1254;98955;-79
2023/05/31 11:57:51;;;;;;;1.20;0.90;;;;;;;21.41;30.05;101287.48;106639;1256;95822;-79
2023/05/31 12:00:44;;;;;;;2.70;1.00;;;;;;;21.51;30.22;101285.58;106681;1256;95869;-81
2023/05/31 12:03:31;;;;;;;3.70;0.90;;;;;;;21.55;29.75;101286.80;106583;1254;99903;-82
2023/05/31 12:06:16;;;;;;;3.70;1.00;;;;;;;21.57;29.86;101287.92;106983;1257;99322;-86
2023/05/31 12:09:08;;;;;;;3.60;1.10;;;;;;;21.56;29.66;101285.27;106583;1260;98238;-79
2023/05/31 12:12:09;;;;;;;5.10;2.10;;;;;;;21.55;30.14;101280.34;106627;1257;95838;-79
2023/05/31 12:14:54;;;;;;;2.40;1.50;;;;;;;21.59;29.25;101286.20;106236;1259;95857;-79
2023/05/31 12:17:40;;;;;;;3.90;1.00;;;;;;;21.65;28.57;101281.14;105673;1254;99358;-79
2023/05/31 12:20:29;;;;;;;1.70;0.90;;;;;;;21.69;28.23;101276.59;105668;1254;100430;-79
2023/05/31 12:23:18;;;;;;;1.30;0.80;;;;;;;21.75;28.36;101272.40;105745;1251;97746;-87
2023/05/31 12:26:05;;;;;;;1.60;1.10;;;;;;;21.79;28.55;101271.05;106565;1254;95907;-79
2023/05/31 12:28:51;;;;;;;3.80;1.20;;;;;;;21.75;27.82;101268.08;106607;1252;95851;-86
2023/05/31 12:31:37;;;;;;;1.40;1.00;;;;;;;21.73;28.25;101266.30;106883;1253;98635;-85
2023/05/31 12:34:26;;;;;;;2.90;1.20;;;;;;;21.72;27.82;101264.70;106670;1253;100338;-88
2023/05/31 12:37:12;;;;;;;1.50;1.00;;;;;;;21.69;27.44;101259.52;107094;1254;98881;-90
2023/05/31 12:40:12;;;;;;;2.70;0.90;;;;;;;21.72;27.86;101251.65;106746;1254;95841;-91
2023/05/31 12:43:01;;;;;;;;;;;;;;;21.80;27.32;101249.70;106804;1260;95783;-85
2023/05/31 12:45:47;;;;;;;1.00;0.90;;;;;;;21.82;27.48;101247.55;106531;1252;99281;-85
2023/05/31 12:48:33;;;;;;;3.80;1.10;;;;;;;21.87;28.08;101247.14;106474;1254;109008;-80
2023/05/31 12:51:24;;;;;;;3.00;1.10;;;;;;;21.88;27.47;101243.17;106581;1253;98280;-80
2023/05/31 12:54:11;;;;;;;5.00;1.30;;;;;;;21.85;27.08;101236.36;106640;1254;95812;-80
2023/05/31 12:57:06;;;;;;;2.00;1.30;;;;;;;21.95;27.18;101228.23;106683;1253;97176;-82
2023/05/31 13:00:07;;;;;;;3.40;1.00;;;;;;;22.06;27.28;101221.21;106751;1256;98628;-81
2023/05/31 13:02:52;;;;;;;;;;;;;;;22.17;27.40;101216.44;106802;1254;99036;-82
2023/05/31 13:05:38;;;;;;;9.10;1.80;;;;;;;22.24;27.33;101218.57;106845;1255;98680;-81
2023/05/31 13:08:24;;;;;;;1.40;1.00;;;;;;;22.30;26.92;101216.83;106315;1254;95255;-83
2023/05/31 13:11:09;;;;;;;3.10;1.20;;;;;;;22.41;27.26;101206.22;106635;1254;96144;-88
2023/05/31 13:13:55;;;;;;;2.30;1.00;;;;;;;22.51;27.14;101202.52;106638;1251;98649;-86
2023/05/31 13:16:42;;;;;;;3.90;2.20;;;;;;;22.61;27.55;101200.83;106687;1254;99254;-87
2023/05/31 13:19:28;;;;;;;1.60;1.20;;;;;;;22.70;26.76;101194.68;106276;1254;97713;-84